createdAt,value
2022-08-22T00:02:26.730Z,101373.34
2022-08-22T00:02:47.664Z,101381.94
2022-08-22T00:03:04.654Z,101395.38
2022-08-22T00:03:10.807Z,101406.03
2022-08-22T00:05:31.871Z,101374.69
2022-08-22T00:08:15.271Z,101357.63
2022-08-22T00:11:25.760Z,101361.25
2022-08-22T00:14:55.387Z,101361.00
2022-08-22T00:17:42.701Z,101370.19
2022-08-22T00:20:34.800Z,101364.38
2022-08-22T00:23:27.246Z,101373.09
2022-08-22T00:26:31.956Z,101373.88
2022-08-22T00:29:11.031Z,101367.88
2022-08-22T00:31:52.641Z,101357.34
2022-08-22T00:34:43.693Z,101359.59
2022-08-22T00:37:24.296Z,101365.38
2022-08-22T00:40:04.127Z,101367.81
2022-08-22T00:42:45.105Z,101363.19
2022-08-22T00:45:39.854Z,101353.88
2022-08-22T00:48:47.680Z,101347.22
2022-08-22T00:51:49.414Z,101344.84
2022-08-22T00:54:22.289Z,101351.66
2022-08-22T00:57:17.026Z,101352.88
2022-08-22T00:59:51.651Z,101343.34
2022-08-22T01:02:50.408Z,101342.19
2022-08-22T01:06:08.531Z,101356.81
2022-08-22T01:09:01.332Z,101353.94
2022-08-22T01:11:57.719Z,101365.84
2022-08-22T01:14:59.063Z,101359.91
2022-08-22T01:18:03.092Z,101360.41
2022-08-22T01:21:13.589Z,101365.09
2022-08-22T01:24:22.309Z,101382.13
2022-08-22T01:27:12.325Z,101380.06
2022-08-22T01:30:28.630Z,101384.53
2022-08-22T01:33:51.451Z,101380.25
2022-08-22T01:36:44.073Z,101370.38
2022-08-22T01:39:35.548Z,101362.13
2022-08-22T01:42:29.926Z,101356.94
2022-08-22T01:45:42.604Z,101364.00
2022-08-22T01:48:22.460Z,101359.84
2022-08-22T01:50:58.358Z,101358.94
2022-08-22T01:53:44.495Z,101355.22
2022-08-22T01:56:22.108Z,101359.03
2022-08-22T01:58:59.911Z,101354.13
2022-08-22T02:01:44.799Z,101356.94
2022-08-22T02:04:31.119Z,101349.19
2022-08-22T02:07:16.800Z,101354.34
2022-08-22T02:10:13.850Z,101349.00
2022-08-22T02:12:49.175Z,101349.44
2022-08-22T02:15:21.890Z,101350.03
2022-08-22T02:18:06.628Z,101352.66
2022-08-22T02:20:48.661Z,101343.72
2022-08-22T02:23:25.311Z,101345.88
2022-08-22T02:26:39.976Z,101346.59
2022-08-22T02:29:19.374Z,101354.63
2022-08-22T02:32:28.787Z,101346.19
2022-08-22T02:35:20.994Z,101342.78
2022-08-22T02:38:08.258Z,101340.03
2022-08-22T02:40:48.482Z,101333.00
2022-08-22T02:44:00.480Z,101335.50
2022-08-22T02:47:14.960Z,101329.63
2022-08-22T02:50:12.869Z,101321.25
2022-08-22T02:52:56.581Z,101328.31
2022-08-22T02:55:55.064Z,101328.75
2022-08-22T02:59:12.153Z,101322.31
2022-08-22T03:01:46.634Z,101335.50
2022-08-22T03:04:31.806Z,101318.06
2022-08-22T03:06:58.631Z,101307.44
2022-08-22T03:09:35.452Z,101303.97
2022-08-22T03:12:32.040Z,101294.28
2022-08-22T03:15:25.828Z,101313.97
2022-08-22T03:17:58.112Z,101296.56
2022-08-22T03:20:51.731Z,101294.53
2022-08-22T03:23:46.620Z,101304.78
2022-08-22T03:26:36.475Z,101288.59
2022-08-22T03:29:07.877Z,101291.00
2022-08-22T03:31:36.519Z,101286.34
2022-08-22T03:34:26.404Z,101284.97
2022-08-22T03:37:15.120Z,101294.53
2022-08-22T03:39:51.272Z,101277.78
2022-08-22T03:42:24.272Z,101286.09
2022-08-22T03:45:55.012Z,101275.78
2022-08-22T03:48:45.858Z,101275.22
2022-08-22T03:51:23.239Z,101283.47
2022-08-22T03:53:50.164Z,101286.81
2022-08-22T03:57:35.771Z,101286.28
2022-08-22T04:00:43.278Z,101281.28
2022-08-22T04:03:35.957Z,101281.25
2022-08-22T04:06:17.764Z,101273.94
2022-08-22T04:09:26.815Z,101290.38
2022-08-22T04:12:27.266Z,101284.75
2022-08-22T04:15:50.417Z,101275.75
2022-08-22T04:18:27.553Z,101280.94
2022-08-22T04:21:17.198Z,101278.59
2022-08-22T04:24:30.825Z,101280.28
2022-08-22T04:27:29.571Z,101266.38
2022-08-22T04:30:22.203Z,101270.78
2022-08-22T04:33:15.429Z,101277.25
2022-08-22T04:36:07.700Z,101279.81
2022-08-22T04:39:03.633Z,101284.38
2022-08-22T04:41:53.294Z,101284.00
2022-08-22T04:44:33.686Z,101288.84
2022-08-22T04:47:14.916Z,101286.16
2022-08-22T04:50:02.261Z,101284.28
2022-08-22T04:53:03.325Z,101282.31
2022-08-22T04:56:13.000Z,101281.22
2022-08-22T04:58:50.917Z,101279.97
2022-08-22T05:01:25.648Z,101280.09
2022-08-22T05:04:08.391Z,101285.78
2022-08-22T05:06:42.142Z,101284.81
2022-08-22T05:09:20.861Z,101293.69
2022-08-22T05:11:53.387Z,101303.75
2022-08-22T05:14:46.337Z,101297.41
2022-08-22T05:17:21.262Z,101292.75
2022-08-22T05:19:54.213Z,101301.94
2022-08-22T05:22:30.363Z,101306.19
2022-08-22T05:25:10.948Z,101302.63
2022-08-22T05:27:49.051Z,101308.16
2022-08-22T05:30:28.206Z,101306.28
2022-08-22T05:33:09.338Z,101293.09
2022-08-22T05:35:50.832Z,101287.31
2022-08-22T05:38:28.137Z,101293.94
2022-08-22T05:41:03.537Z,101299.69
2022-08-22T05:43:36.599Z,101290.13
2022-08-22T05:46:09.838Z,101282.56
2022-08-22T05:49:03.167Z,101293.16
2022-08-22T05:52:00.045Z,101287.75
2022-08-22T05:54:34.664Z,101274.53
2022-08-22T05:57:34.813Z,101285.56
2022-08-22T06:00:19.114Z,101275.59
2022-08-22T06:03:28.433Z,101286.19
2022-08-22T06:06:00.005Z,101283.06
2022-08-22T06:08:33.179Z,101283.63
2022-08-22T06:11:09.480Z,101285.63
2022-08-22T06:13:47.339Z,101288.47
2022-08-22T06:16:17.134Z,101291.03
2022-08-22T06:18:45.971Z,101309.78
2022-08-22T06:21:39.434Z,101306.19
2022-08-22T06:24:13.627Z,101318.38
2022-08-22T06:26:48.707Z,101311.56
2022-08-22T06:29:40.327Z,101318.38
2022-08-22T06:32:30.749Z,101311.19
2022-08-22T06:35:17.134Z,101318.41
2022-08-22T06:37:46.859Z,101309.31
2022-08-22T06:40:17.090Z,101322.97
2022-08-22T06:42:51.351Z,101316.59
2022-08-22T06:45:30.219Z,101326.13
2022-08-22T06:48:06.672Z,101336.47
2022-08-22T06:50:39.187Z,101335.81
2022-08-22T06:53:27.244Z,101346.97
2022-08-22T06:55:57.653Z,101343.88
2022-08-22T06:58:38.288Z,101342.84
2022-08-22T07:01:15.157Z,101339.81
2022-08-22T07:03:49.378Z,101357.34
2022-08-22T07:06:21.295Z,101363.63
2022-08-22T07:08:54.140Z,101349.56
2022-08-22T07:11:28.655Z,101350.75
2022-08-22T07:14:03.052Z,101347.28
2022-08-22T07:16:42.789Z,101331.66
2022-08-22T07:19:26.609Z,101334.63
2022-08-22T07:21:55.065Z,101335.75
2022-08-22T07:24:31.286Z,101331.09
2022-08-22T07:27:19.317Z,101334.72
2022-08-22T07:30:11.221Z,101328.16
2022-08-22T07:33:25.322Z,101319.72
2022-08-22T07:36:00.730Z,101317.59
2022-08-22T07:38:54.654Z,101300.41
2022-08-22T07:41:36.814Z,101302.56
2022-08-22T07:44:13.705Z,101314.09
2022-08-22T07:47:00.666Z,101317.22
2022-08-22T07:49:35.587Z,101308.84
2022-08-22T07:52:09.991Z,101322.69
2022-08-22T07:54:57.856Z,101316.91
2022-08-22T07:57:34.275Z,101314.31
2022-08-22T08:00:10.992Z,101314.03
2022-08-22T08:02:45.649Z,101305.84
2022-08-22T08:05:14.022Z,101309.81
2022-08-22T08:07:45.463Z,101303.66
2022-08-22T08:10:22.682Z,101305.59
2022-08-22T08:13:02.548Z,101305.22
2022-08-22T08:15:34.399Z,101297.47
2022-08-22T08:18:21.942Z,101304.94
2022-08-22T08:21:02.090Z,101296.78
2022-08-22T08:23:39.576Z,101301.19
2022-08-22T08:26:18.869Z,101295.91
2022-08-22T08:28:52.171Z,101289.97
2022-08-22T08:31:35.327Z,101287.06
2022-08-22T08:34:15.823Z,101280.47
2022-08-22T08:36:48.536Z,101272.28
2022-08-22T08:39:34.984Z,101268.22
2022-08-22T08:42:17.459Z,101267.25
2022-08-22T08:45:08.845Z,101267.09
2022-08-22T08:48:06.427Z,101264.53
2022-08-22T08:51:23.786Z,101263.97
2022-08-22T08:55:22.792Z,101262.59
2022-08-22T08:58:33.735Z,101256.75
2022-08-22T09:01:16.884Z,101261.84
2022-08-22T09:04:49.095Z,101261.66
2022-08-22T09:07:33.866Z,101259.50
2022-08-22T09:10:57.851Z,101254.78
2022-08-22T09:13:44.605Z,101252.72
2022-08-22T09:16:26.477Z,101254.88
2022-08-22T09:19:19.827Z,101255.06
2022-08-22T09:22:23.151Z,101248.66
2022-08-22T09:25:27.905Z,101243.81
2022-08-22T09:28:16.124Z,101244.88
2022-08-22T09:31:51.492Z,101241.91
2022-08-22T09:34:37.181Z,101246.50
2022-08-22T09:37:36.282Z,101247.59
2022-08-22T09:43:06.798Z,101242.19
2022-08-22T09:45:53.797Z,101253.25
2022-08-22T09:48:42.473Z,101252.16
2022-08-22T09:51:41.838Z,101240.56
2022-08-22T09:54:44.085Z,101238.28
2022-08-22T09:58:06.782Z,101238.56
2022-08-22T10:00:55.658Z,101236.38
2022-08-22T10:03:45.263Z,101230.00
2022-08-22T10:06:27.916Z,101224.81
2022-08-22T10:09:05.455Z,101221.31
2022-08-22T10:12:12.919Z,101223.00
2022-08-22T10:15:11.346Z,101224.13
2022-08-22T10:17:57.337Z,101219.03
2022-08-22T10:20:36.443Z,101227.81
2022-08-22T10:23:52.730Z,101220.25
2022-08-22T10:26:38.977Z,101212.91
2022-08-22T10:29:40.030Z,101213.09
2022-08-22T10:32:52.710Z,101219.41
2022-08-22T10:35:33.915Z,101214.06
2022-08-22T10:38:12.523Z,101202.44
2022-08-22T10:41:09.159Z,101205.28
2022-08-22T10:43:56.434Z,101211.38
2022-08-22T10:47:01.219Z,101206.16
2022-08-22T10:49:39.254Z,101205.88
2022-08-22T10:52:16.418Z,101208.84
2022-08-22T10:54:51.543Z,101199.19
2022-08-22T10:57:40.259Z,101195.25
2022-08-22T11:00:46.441Z,101199.72
2022-08-22T11:03:43.839Z,101203.41
2022-08-22T11:06:55.028Z,101194.38
2022-08-22T11:09:43.891Z,101194.38
2022-08-22T11:12:44.644Z,101199.78
2022-08-22T11:15:26.205Z,101188.72
2022-08-22T11:18:18.466Z,101192.34
2022-08-22T11:21:02.465Z,101195.00
2022-08-22T11:24:17.764Z,101196.44
2022-08-22T11:27:21.021Z,101193.50
2022-08-22T11:30:06.664Z,101189.22
2022-08-22T11:32:36.681Z,101179.25
2022-08-22T11:35:27.625Z,101186.50
2022-08-22T11:38:05.549Z,101189.88
2022-08-22T11:41:15.199Z,101183.72
2022-08-22T11:44:09.320Z,101189.63
2022-08-22T11:46:43.949Z,101176.88
2022-08-22T11:49:32.911Z,101175.69
2022-08-22T11:52:25.578Z,101173.44
2022-08-22T11:55:11.445Z,101171.69
2022-08-22T11:57:44.956Z,101172.56
2022-08-22T12:00:34.610Z,101165.59
2022-08-22T12:03:25.088Z,101167.25
2022-08-22T12:06:21.179Z,101153.09
2022-08-22T12:08:49.553Z,101156.09
2022-08-22T12:11:38.544Z,101149.28
2022-08-22T12:14:19.068Z,101154.25
2022-08-22T12:17:55.698Z,101142.56
2022-08-22T12:20:45.591Z,101131.97
2022-08-22T12:23:40.053Z,101134.06
2022-08-22T12:26:53.281Z,101122.41
2022-08-22T12:29:40.056Z,101126.09
2022-08-22T12:32:49.145Z,101119.72
2022-08-22T12:36:17.841Z,101119.66
2022-08-22T12:39:12.787Z,101115.63
2022-08-22T12:41:51.410Z,101117.47
2022-08-22T12:44:31.292Z,101115.88
2022-08-22T12:47:32.101Z,101112.50
2022-08-22T12:50:07.165Z,101112.72
2022-08-22T12:53:02.297Z,101108.50
2022-08-22T12:56:22.585Z,101096.91
2022-08-22T12:59:19.629Z,101102.00
2022-08-22T13:01:50.477Z,101110.72
2022-08-22T13:04:33.086Z,101107.06
2022-08-22T13:07:25.038Z,101099.25
2022-08-22T13:09:59.886Z,101090.00
2022-08-22T13:12:46.588Z,101090.47
2022-08-22T13:15:31.141Z,101081.19
2022-08-22T13:18:25.149Z,101091.03
2022-08-22T13:20:52.706Z,101084.81
2022-08-22T13:23:22.217Z,101081.03
2022-08-22T13:26:33.583Z,101083.75
2022-08-22T13:29:25.247Z,101064.78
2022-08-22T13:32:01.510Z,101073.84
2022-08-22T13:34:44.110Z,101071.69
2022-08-22T13:37:24.585Z,101080.22
2022-08-22T13:39:58.904Z,101079.69
2022-08-22T13:42:30.951Z,101079.69
2022-08-22T13:45:05.431Z,101073.47
2022-08-22T13:47:39.411Z,101075.59
2022-08-22T13:50:20.853Z,101077.38
2022-08-22T13:52:55.108Z,101084.09
2022-08-22T13:56:01.601Z,101077.09
2022-08-22T13:58:45.578Z,101060.34
2022-08-22T14:01:49.216Z,101067.28
2022-08-22T14:04:36.211Z,101060.94
2022-08-22T14:07:06.090Z,101062.78
2022-08-22T14:09:53.330Z,101057.69
2022-08-22T14:12:33.417Z,101052.91
2022-08-22T14:15:05.554Z,101055.94
2022-08-22T14:17:42.839Z,101062.38
2022-08-22T14:20:14.721Z,101064.47
2022-08-22T14:23:24.441Z,101057.25
2022-08-22T14:25:56.052Z,101054.91
2022-08-22T14:28:33.639Z,101056.16
2022-08-22T14:31:35.168Z,101062.47
2022-08-22T14:34:13.621Z,101064.88
2022-08-22T14:36:55.052Z,101061.78
2022-08-22T14:39:50.462Z,101061.22
2022-08-22T14:42:28.704Z,101057.22
2022-08-22T14:45:13.151Z,101059.50
2022-08-22T14:48:31.204Z,101054.47
2022-08-22T14:51:17.225Z,101051.00
2022-08-22T14:53:44.268Z,101043.97
2022-08-22T14:56:21.625Z,101039.22
2022-08-22T14:59:08.312Z,101042.13
2022-08-22T15:01:58.973Z,101042.78
2022-08-22T15:04:42.967Z,101029.69
2022-08-22T15:07:21.740Z,101023.84
2022-08-22T15:10:03.328Z,101026.72
2022-08-22T15:12:37.774Z,101018.91
2022-08-22T15:15:32.636Z,101019.00
2022-08-22T15:18:35.901Z,101022.09
2022-08-22T15:21:21.032Z,101026.09
2022-08-22T15:23:56.196Z,101034.06
2022-08-22T15:26:39.459Z,101029.38
2022-08-22T15:29:18.630Z,101032.22
2022-08-22T15:31:55.302Z,101021.59
2022-08-22T15:35:08.377Z,101030.44
2022-08-22T15:37:58.693Z,101017.72
2022-08-22T15:40:45.682Z,101029.00
2022-08-22T15:43:35.312Z,101037.34
2022-08-22T15:46:20.754Z,101029.69
2022-08-22T15:49:07.050Z,101018.66
2022-08-22T15:52:00.935Z,101020.81
2022-08-22T15:54:46.873Z,101009.63
2022-08-22T15:57:30.345Z,101002.06
2022-08-22T16:00:30.741Z,100997.03
2022-08-22T16:03:24.916Z,100995.03
2022-08-22T16:06:01.329Z,101000.53
2022-08-22T16:08:50.341Z,101008.34
2022-08-22T16:11:38.655Z,100999.03
2022-08-22T16:14:45.453Z,101007.53
2022-08-22T16:17:42.731Z,101008.69
2022-08-22T16:20:19.255Z,101013.50
2022-08-22T16:22:58.770Z,101004.56
2022-08-22T16:26:03.937Z,101009.78
2022-08-22T16:29:05.521Z,101011.91
2022-08-22T16:31:44.655Z,101003.34
2022-08-22T16:34:17.761Z,101011.78
2022-08-22T16:36:52.133Z,101020.44
2022-08-22T16:39:22.054Z,101009.34
2022-08-22T16:41:56.365Z,101009.44
2022-08-22T16:44:29.062Z,101005.13
2022-08-22T16:47:13.830Z,101005.78
2022-08-22T16:49:55.013Z,101011.72
2022-08-22T16:52:24.743Z,101015.75
2022-08-22T16:55:00.113Z,101019.88
2022-08-22T16:58:05.611Z,101016.69
2022-08-22T17:00:59.842Z,101018.03
2022-08-22T17:03:32.807Z,101018.38
2022-08-22T17:06:53.021Z,101016.69
2022-08-22T17:09:30.362Z,101011.69
2022-08-22T17:12:18.352Z,101017.06
2022-08-22T17:15:23.660Z,101021.78
2022-08-22T17:18:15.302Z,101025.03
2022-08-22T17:20:47.545Z,101032.09
2022-08-22T17:23:58.286Z,101019.75
2022-08-22T17:26:55.311Z,101032.00
2022-08-22T17:29:40.327Z,101031.28
2022-08-22T17:32:30.413Z,101031.59
2022-08-22T17:35:32.882Z,101031.44
2022-08-22T17:37:59.884Z,101036.25
2022-08-22T17:40:54.050Z,101047.47
2022-08-22T17:43:49.299Z,101057.47
2022-08-22T17:46:36.593Z,101067.09
2022-08-22T17:49:26.845Z,101070.66
2022-08-22T17:52:20.777Z,101073.00
2022-08-22T17:55:20.025Z,101060.34
2022-08-22T17:58:37.736Z,101074.69
2022-08-22T18:01:37.285Z,101075.78
2022-08-22T18:04:10.888Z,101075.22
2022-08-22T18:06:49.266Z,101081.44
2022-08-22T18:09:40.196Z,101083.59
2022-08-22T18:12:21.175Z,101085.97
2022-08-22T18:15:03.900Z,101090.00
2022-08-22T18:17:44.325Z,101092.69
2022-08-22T18:20:25.536Z,101089.75
2022-08-22T18:23:21.673Z,101085.50
2022-08-22T18:26:24.148Z,101091.53
2022-08-22T18:29:01.069Z,101091.56
2022-08-22T18:32:08.562Z,101104.56
2022-08-22T18:34:47.304Z,101104.84
2022-08-22T18:37:48.502Z,101117.03
2022-08-22T18:40:37.187Z,101119.03
2022-08-22T18:43:37.929Z,101122.81
2022-08-22T18:46:27.710Z,101130.41
2022-08-22T18:49:14.736Z,101134.25
2022-08-22T18:51:43.351Z,101122.84
2022-08-22T18:54:13.694Z,101125.34
2022-08-22T18:57:25.221Z,101134.25
2022-08-22T19:00:16.653Z,101137.63
2022-08-22T19:03:21.339Z,101141.31
2022-08-22T19:06:10.016Z,101138.91
2022-08-22T19:09:21.040Z,101141.63
2022-08-22T19:12:01.805Z,101141.97
2022-08-22T19:15:06.797Z,101151.09
2022-08-22T19:18:12.520Z,101157.03
2022-08-22T19:20:59.726Z,101160.56
2022-08-22T19:23:32.405Z,101158.13
2022-08-22T19:26:20.743Z,101154.50
2022-08-22T19:28:48.402Z,101157.56
2022-08-22T19:31:41.154Z,101149.31
2022-08-22T19:34:35.126Z,101160.56
2022-08-22T19:37:30.759Z,101158.63
2022-08-22T19:40:09.003Z,101169.84
2022-08-22T19:42:39.644Z,101177.59
2022-08-22T19:45:26.622Z,101175.66
2022-08-22T19:48:14.666Z,101174.97
2022-08-22T19:50:43.462Z,101176.13
2022-08-22T19:53:31.166Z,101178.94
2022-08-22T19:56:29.021Z,101164.88
2022-08-22T19:59:37.946Z,101168.16
2022-08-22T20:02:31.839Z,101165.00
2022-08-22T20:05:27.804Z,101166.88
2022-08-22T20:08:26.829Z,101174.19
2022-08-22T20:11:32.475Z,101178.41
2022-08-22T20:14:22.443Z,101174.78
2022-08-22T20:17:25.581Z,101176.69
2022-08-22T20:20:18.132Z,101187.34
2022-08-22T20:23:15.896Z,101190.19
2022-08-22T20:25:52.987Z,101191.81
2022-08-22T20:28:48.851Z,101190.28
2022-08-22T20:31:27.162Z,101187.16
2022-08-22T20:34:18.311Z,101184.94
2022-08-22T20:36:46.935Z,101179.91
2022-08-22T20:39:23.626Z,101192.06
2022-08-22T20:42:00.482Z,101186.16
2022-08-22T20:44:38.316Z,101190.41
2022-08-22T20:47:19.641Z,101175.63
2022-08-22T20:50:06.943Z,101188.13
2022-08-22T20:52:54.178Z,101186.44
2022-08-22T20:55:31.578Z,101191.00
2022-08-22T20:58:05.593Z,101187.66
2022-08-22T21:00:45.929Z,101172.88
2022-08-22T21:03:29.186Z,101182.25
2022-08-22T21:05:56.157Z,101168.06
2022-08-22T21:08:26.513Z,101182.88
2022-08-22T21:11:22.631Z,101187.66
2022-08-22T21:13:50.516Z,101172.47
2022-08-22T21:16:33.722Z,101169.81
2022-08-22T21:19:04.739Z,101162.59
2022-08-22T21:21:35.036Z,101171.50
2022-08-22T21:24:07.102Z,101168.03
2022-08-22T21:26:37.866Z,101167.44
2022-08-22T21:29:23.248Z,101168.97
2022-08-22T21:31:59.252Z,101168.03
2022-08-22T21:34:43.280Z,101168.19
2022-08-22T21:37:17.532Z,101159.81
2022-08-22T21:39:50.713Z,101173.66
2022-08-22T21:42:30.792Z,101163.81
2022-08-22T21:45:06.653Z,101166.13
2022-08-22T21:47:41.451Z,101160.69
2022-08-22T21:50:23.552Z,101161.13
2022-08-22T21:52:56.750Z,101157.28
2022-08-22T21:55:34.406Z,101168.41
2022-08-22T21:58:34.977Z,101166.84
2022-08-22T22:01:22.521Z,101160.91
2022-08-22T22:03:52.134Z,101165.78
2022-08-22T22:06:19.531Z,101172.31
2022-08-22T22:08:46.462Z,101170.09
2022-08-22T22:11:15.449Z,101173.72
2022-08-22T22:13:43.145Z,101169.50
2022-08-22T22:16:12.134Z,101164.25
2022-08-22T22:18:40.604Z,101158.19
2022-08-22T22:21:08.017Z,101175.94
2022-08-22T22:23:35.252Z,101156.78
2022-08-22T22:26:05.575Z,101163.09
2022-08-22T22:28:40.023Z,101156.34
2022-08-22T22:31:07.593Z,101163.25
2022-08-22T22:33:39.547Z,101162.53
2022-08-22T22:36:22.701Z,101166.06
2022-08-22T22:38:53.974Z,101166.44
2022-08-22T22:41:25.463Z,101166.56
2022-08-22T22:43:53.744Z,101170.88
2022-08-22T22:46:22.551Z,101179.09
2022-08-22T22:48:49.793Z,101174.63
2022-08-22T22:51:16.789Z,101174.31
2022-08-22T22:53:44.889Z,101161.00
2022-08-22T22:56:22.294Z,101167.31
2022-08-22T22:58:58.969Z,101171.16
2022-08-22T23:01:28.341Z,101165.91
2022-08-22T23:03:57.131Z,101158.09
2022-08-22T23:06:26.468Z,101153.69
2022-08-22T23:08:54.462Z,101159.63
2022-08-22T23:11:28.522Z,101160.28
2022-08-22T23:13:56.251Z,101163.09
2022-08-22T23:16:28.236Z,101165.97
2022-08-22T23:18:55.801Z,101169.38
2022-08-22T23:21:28.352Z,101166.97
2022-08-22T23:24:00.287Z,101176.88
2022-08-22T23:26:28.688Z,101179.63
2022-08-22T23:28:56.803Z,101181.72
2022-08-22T23:31:34.755Z,101173.19
2022-08-22T23:34:12.527Z,101176.81
2022-08-22T23:36:45.473Z,101178.66
2022-08-22T23:39:14.408Z,101166.63
2022-08-22T23:41:42.258Z,101169.34
2022-08-22T23:44:13.639Z,101170.66
2022-08-22T23:46:42.072Z,101167.66
2022-08-22T23:49:09.298Z,101176.41
2022-08-22T23:51:36.573Z,101169.94
2022-08-22T23:54:04.933Z,101166.75
2022-08-22T23:56:42.454Z,101171.81
2022-08-22T23:59:13.519Z,101179.88
